sensor_id;sensor_type;location;lat;lon;timestamp;pressure;altitude;pressure_sealevel;temperature;humidity
36664;BME280;53333;51.976;20.144;2023-05-23T00:01:46;100142.88;;;15.70;33.62
36664;BME280;53333;51.976;20.144;2023-05-23T00:04:20;100145.78;;;15.67;33.48
36664;BME280;53333;51.976;20.144;2023-05-23T00:06:53;100148.72;;;15.64;33.58
36664;BME280;53333;51.976;20.144;2023-05-23T00:09:26;100144.50;;;15.59;33.53
36664;BME280;53333;51.976;20.144;2023-05-23T00:12:00;100134.03;;;15.55;33.65
36664;BME280;53333;51.976;20.144;2023-05-23T00:14:33;100144.16;;;15.51;33.64
36664;BME280;53333;51.976;20.144;2023-05-23T00:17:10;100141.69;;;15.48;33.75
36664;BME280;53333;51.976;20.144;2023-05-23T00:19:43;100141.78;;;15.47;33.71
36664;BME280;53333;51.976;20.144;2023-05-23T00:22:16;100149.34;;;15.41;33.76
36664;BME280;53333;51.976;20.144;2023-05-23T00:24:49;100138.78;;;15.38;33.68
36664;BME280;53333;51.976;20.144;2023-05-23T00:27:23;100139.00;;;15.35;33.64
36664;BME280;53333;51.976;20.144;2023-05-23T00:29:56;100136.63;;;15.31;33.83
36664;BME280;53333;51.976;20.144;2023-05-23T00:32:29;100139.50;;;15.28;33.83
36664;BME280;53333;51.976;20.144;2023-05-23T00:35:01;100136.19;;;15.24;34.04
36664;BME280;53333;51.976;20.144;2023-05-23T00:37:34;100139.19;;;15.19;33.68
36664;BME280;53333;51.976;20.144;2023-05-23T00:40:07;100143.03;;;15.15;33.91
36664;BME280;53333;51.976;20.144;2023-05-23T00:42:41;100139.81;;;15.10;33.80
36664;BME280;53333;51.976;20.144;2023-05-23T00:45:14;100136.56;;;15.05;34.10
36664;BME280;53333;51.976;20.144;2023-05-23T00:47:48;100136.88;;;15.00;34.06
36664;BME280;53333;51.976;20.144;2023-05-23T00:50:21;100136.13;;;14.98;34.11
36664;BME280;53333;51.976;20.144;2023-05-23T00:52:55;100135.44;;;14.95;33.90
36664;BME280;53333;51.976;20.144;2023-05-23T00:55:29;100133.06;;;14.90;33.99
36664;BME280;53333;51.976;20.144;2023-05-23T00:58:03;100129.94;;;14.83;34.14
36664;BME280;53333;51.976;20.144;2023-05-23T01:00:36;100134.75;;;14.78;34.26
36664;BME280;53333;51.976;20.144;2023-05-23T01:03:10;100127.84;;;14.74;34.21
36664;BME280;53333;51.976;20.144;2023-05-23T01:05:49;100130.97;;;14.68;34.34
36664;BME280;53333;51.976;20.144;2023-05-23T01:08:22;100131.28;;;14.63;34.14
36664;BME280;53333;51.976;20.144;2023-05-23T01:10:55;100124.34;;;14.59;34.26
36664;BME280;53333;51.976;20.144;2023-05-23T01:13:33;100125.53;;;14.55;34.32
36664;BME280;53333;51.976;20.144;2023-05-23T01:16:09;100128.50;;;14.50;34.41
36664;BME280;53333;51.976;20.144;2023-05-23T01:18:45;100122.53;;;14.45;34.41
36664;BME280;53333;51.976;20.144;2023-05-23T01:21:20;100117.38;;;14.42;34.48
36664;BME280;53333;51.976;20.144;2023-05-23T01:24:11;100116.63;;;14.40;34.37
36664;BME280;53333;51.976;20.144;2023-05-23T01:26:55;100116.91;;;14.35;34.47
36664;BME280;53333;51.976;20.144;2023-05-23T01:29:34;100116.25;;;14.32;34.48
36664;BME280;53333;51.976;20.144;2023-05-23T01:32:09;100120.00;;;14.29;34.59
36664;BME280;53333;51.976;20.144;2023-05-23T01:34:44;100115.72;;;14.27;34.58
36664;BME280;53333;51.976;20.144;2023-05-23T01:37:17;100114.91;;;14.25;34.61
36664;BME280;53333;51.976;20.144;2023-05-23T01:39:50;100117.84;;;14.22;34.56
36664;BME280;53333;51.976;20.144;2023-05-23T01:42:24;100116.84;;;14.23;34.60
36664;BME280;53333;51.976;20.144;2023-05-23T01:44:59;100116.84;;;14.23;34.64
36664;BME280;53333;51.976;20.144;2023-05-23T01:47:34;100108.03;;;14.21;34.57
36664;BME280;53333;51.976;20.144;2023-05-23T01:50:09;100109.97;;;14.19;34.55
36664;BME280;53333;51.976;20.144;2023-05-23T01:52:42;100103.81;;;14.16;34.80
36664;BME280;53333;51.976;20.144;2023-05-23T01:55:16;100099.31;;;14.17;34.63
36664;BME280;53333;51.976;20.144;2023-05-23T01:57:53;100102.00;;;14.17;34.69
36664;BME280;53333;51.976;20.144;2023-05-23T02:00:28;100099.31;;;14.17;34.59
36664;BME280;53333;51.976;20.144;2023-05-23T02:03:01;100102.00;;;14.17;34.64
36664;BME280;53333;51.976;20.144;2023-05-23T02:05:36;100100.47;;;14.13;34.67
36664;BME280;53333;51.976;20.144;2023-05-23T02:08:08;100092.63;;;14.10;34.65
36664;BME280;53333;51.976;20.144;2023-05-23T02:10:41;100091.84;;;14.08;34.83
36664;BME280;53333;51.976;20.144;2023-05-23T02:13:14;100093.78;;;14.06;34.75
36664;BME280;53333;51.976;20.144;2023-05-23T02:15:48;100091.28;;;14.03;34.63
36664;BME280;53333;51.976;20.144;2023-05-23T02:18:21;100093.19;;;14.01;34.77
36664;BME280;53333;51.976;20.144;2023-05-23T02:20:56;100090.59;;;13.99;34.74
36664;BME280;53333;51.976;20.144;2023-05-23T02:23:29;100087.06;;;13.98;34.75
36664;BME280;53333;51.976;20.144;2023-05-23T02:26:02;100094.38;;;13.96;35.01
36664;BME280;53333;51.976;20.144;2023-05-23T02:28:34;100084.69;;;13.94;34.81
36664;BME280;53333;51.976;20.144;2023-05-23T02:31:09;100082.97;;;13.93;34.85
36664;BME280;53333;51.976;20.144;2023-05-23T02:33:42;100085.66;;;13.93;34.99
36664;BME280;53333;51.976;20.144;2023-05-23T02:36:15;100082.97;;;13.93;35.02
36664;BME280;53333;51.976;20.144;2023-05-23T02:38:47;100086.50;;;13.93;34.82
36664;BME280;53333;51.976;20.144;2023-05-23T02:41:21;100086.41;;;13.95;34.97
36664;BME280;53333;51.976;20.144;2023-05-23T02:43:53;100082.00;;;13.94;34.95
36664;BME280;53333;51.976;20.144;2023-05-23T02:46:28;100080.28;;;13.93;34.93
36664;BME280;53333;51.976;20.144;2023-05-23T02:49:00;100077.69;;;13.91;35.00
36664;BME280;53333;51.976;20.144;2023-05-23T02:51:33;100072.44;;;13.90;34.97
36664;BME280;53333;51.976;20.144;2023-05-23T02:54:06;100083.38;;;13.87;35.02
36664;BME280;53333;51.976;20.144;2023-05-23T02:56:41;100082.56;;;13.85;35.01
36664;BME280;53333;51.976;20.144;2023-05-23T02:59:13;100071.06;;;13.83;35.00
36664;BME280;53333;51.976;20.144;2023-05-23T03:01:48;100067.63;;;13.80;35.01
36664;BME280;53333;51.976;20.144;2023-05-23T03:04:20;100073.00;;;13.80;35.11
36664;BME280;53333;51.976;20.144;2023-05-23T03:06:53;100073.75;;;13.83;35.07
36664;BME280;53333;51.976;20.144;2023-05-23T03:09:26;100072.81;;;13.84;35.16
36664;BME280;53333;51.976;20.144;2023-05-23T03:11:59;100081.72;;;13.84;34.95
36664;BME280;53333;51.976;20.144;2023-05-23T03:14:32;100068.31;;;13.84;35.04
36664;BME280;53333;51.976;20.144;2023-05-23T03:17:06;100074.53;;;13.85;35.08
36664;BME280;53333;51.976;20.144;2023-05-23T03:19:39;100079.88;;;13.85;35.17
36664;BME280;53333;51.976;20.144;2023-05-23T03:22:11;100074.44;;;13.86;35.17
36664;BME280;53333;51.976;20.144;2023-05-23T03:24:45;100071.53;;;13.89;35.07
36664;BME280;53333;51.976;20.144;2023-05-23T03:27:18;100075.88;;;13.92;35.01
36664;BME280;53333;51.976;20.144;2023-05-23T03:29:51;100072.78;;;13.98;35.10
36664;BME280;53333;51.976;20.144;2023-05-23T03:32:25;100070.66;;;14.03;35.04
36664;BME280;53333;51.976;20.144;2023-05-23T03:34:58;100076.59;;;14.08;34.97
36664;BME280;53333;51.976;20.144;2023-05-23T03:37:30;100069.09;;;14.13;35.06
36664;BME280;53333;51.976;20.144;2023-05-23T03:40:03;100070.53;;;14.19;34.96
36664;BME280;53333;51.976;20.144;2023-05-23T03:42:37;100072.81;;;14.25;35.00
36664;BME280;53333;51.976;20.144;2023-05-23T03:45:12;100067.91;;;14.32;34.87
36664;BME280;53333;51.976;20.144;2023-05-23T03:47:46;100062.13;;;14.38;34.89
36664;BME280;53333;51.976;20.144;2023-05-23T03:50:19;100064.41;;;14.44;34.91
36664;BME280;53333;51.976;20.144;2023-05-23T03:52:52;100058.63;;;14.50;34.93
36664;BME280;53333;51.976;20.144;2023-05-23T03:55:25;100058.97;;;14.59;34.86
36664;BME280;53333;51.976;20.144;2023-05-23T03:57:58;100058.50;;;14.66;34.74
36664;BME280;53333;51.976;20.144;2023-05-23T04:00:30;100051.72;;;14.74;34.70
36664;BME280;53333;51.976;20.144;2023-05-23T04:03:06;100047.78;;;14.79;34.95
36664;BME280;53333;51.976;20.144;2023-05-23T04:05:41;100041.09;;;14.85;34.99
36664;BME280;53333;51.976;20.144;2023-05-23T04:08:14;100037.16;;;14.91;35.06
36664;BME280;53333;51.976;20.144;2023-05-23T04:10:47;100044.69;;;14.98;35.04
36664;BME280;53333;51.976;20.144;2023-05-23T04:13:19;100040.50;;;15.07;34.98
36664;BME280;53333;51.976;20.144;2023-05-23T04:15:53;100038.91;;;15.17;35.07
36664;BME280;53333;51.976;20.144;2023-05-23T04:18:30;100040.91;;;15.26;35.06
36664;BME280;53333;51.976;20.144;2023-05-23T04:21:03;100034.91;;;15.36;35.08
36664;BME280;53333;51.976;20.144;2023-05-23T04:23:40;100040.59;;;15.44;35.16
36664;BME280;53333;51.976;20.144;2023-05-23T04:26:13;100043.47;;;15.54;35.07
36664;BME280;53333;51.976;20.144;2023-05-23T04:28:52;100043.72;;;15.64;35.07
36664;BME280;53333;51.976;20.144;2023-05-23T04:31:25;100047.56;;;15.72;35.15
36664;BME280;53333;51.976;20.144;2023-05-23T04:33:59;100051.31;;;15.83;35.16
36664;BME280;53333;51.976;20.144;2023-05-23T04:36:33;100052.28;;;15.94;35.29
36664;BME280;53333;51.976;20.144;2023-05-23T04:39:08;100049.66;;;16.06;35.09
36664;BME280;53333;51.976;20.144;2023-05-23T04:41:48;100055.75;;;16.21;35.08
36664;BME280;53333;51.976;20.144;2023-05-23T04:44:42;100052.88;;;16.35;34.80
36664;BME280;53333;51.976;20.144;2023-05-23T04:47:20;100049.16;;;16.49;34.94
36664;BME280;53333;51.976;20.144;2023-05-23T04:50:08;100049.00;;;16.63;34.93
36664;BME280;53333;51.976;20.144;2023-05-23T04:52:41;100044.38;;;16.77;34.84
36664;BME280;53333;51.976;20.144;2023-05-23T04:55:14;100042.50;;;16.90;34.88
36664;BME280;53333;51.976;20.144;2023-05-23T04:57:47;100036.28;;;17.01;34.85
36664;BME280;53333;51.976;20.144;2023-05-23T05:00:20;100037.16;;;17.13;34.94
36664;BME280;53333;51.976;20.144;2023-05-23T05:02:53;100029.78;;;17.26;34.70
36664;BME280;53333;51.976;20.144;2023-05-23T05:05:32;100034.22;;;17.38;34.80
36664;BME280;53333;51.976;20.144;2023-05-23T05:08:05;100028.59;;;17.53;34.71
36664;BME280;53333;51.976;20.144;2023-05-23T05:10:39;100025.66;;;17.67;34.56
36664;BME280;53333;51.976;20.144;2023-05-23T05:13:13;100023.53;;;17.82;34.29
36664;BME280;53333;51.976;20.144;2023-05-23T05:15:49;100018.06;;;17.95;34.28
36664;BME280;53333;51.976;20.144;2023-05-23T05:18:24;100019.47;;;18.10;34.16
36664;BME280;53333;51.976;20.144;2023-05-23T05:21:00;100017.22;;;18.27;33.95
36664;BME280;53333;51.976;20.144;2023-05-23T05:23:34;100026.88;;;18.41;34.14
36664;BME280;53333;51.976;20.144;2023-05-23T05:26:08;100024.88;;;18.54;34.02
36664;BME280;53333;51.976;20.144;2023-05-23T05:28:41;100020.13;;;18.67;34.14
36664;BME280;53333;51.976;20.144;2023-05-23T05:31:14;100027.94;;;18.82;34.04
36664;BME280;53333;51.976;20.144;2023-05-23T05:33:47;100013.97;;;18.98;33.83
36664;BME280;53333;51.976;20.144;2023-05-23T05:36:21;100017.06;;;19.14;33.66
36664;BME280;53333;51.976;20.144;2023-05-23T05:38:54;100010.31;;;19.30;33.88
36664;BME280;53333;51.976;20.144;2023-05-23T05:41:27;100013.50;;;19.45;33.45
36664;BME280;53333;51.976;20.144;2023-05-23T05:44:00;100021.41;;;19.57;33.70
36664;BME280;53333;51.976;20.144;2023-05-23T05:46:32;100015.75;;;19.70;33.73
36664;BME280;53333;51.976;20.144;2023-05-23T05:49:06;100012.81;;;19.83;33.64
36664;BME280;53333;51.976;20.144;2023-05-23T05:51:43;100012.47;;;19.98;33.67
36664;BME280;53333;51.976;20.144;2023-05-23T05:54:16;100013.06;;;20.11;33.55
36664;BME280;53333;51.976;20.144;2023-05-23T05:56:49;100003.81;;;20.23;33.63
36664;BME280;53333;51.976;20.144;2023-05-23T05:59:22;100004.38;;;20.37;33.32
36664;BME280;53333;51.976;20.144;2023-05-23T06:01:55;100009.22;;;20.53;33.33
36664;BME280;53333;51.976;20.144;2023-05-23T06:04:28;100006.97;;;20.67;33.38
36664;BME280;53333;51.976;20.144;2023-05-23T06:07:03;99997.53;;;20.81;33.39
36664;BME280;53333;51.976;20.144;2023-05-23T06:09:36;100005.22;;;20.96;33.40
36664;BME280;53333;51.976;20.144;2023-05-23T06:12:09;99999.50;;;21.09;33.21
36664;BME280;53333;51.976;20.144;2023-05-23T06:14:42;99987.31;;;21.22;33.26
36664;BME280;53333;51.976;20.144;2023-05-23T06:17:15;99986.13;;;21.35;33.14
36664;BME280;53333;51.976;20.144;2023-05-23T06:19:48;99990.66;;;21.44;33.52
36664;BME280;53333;51.976;20.144;2023-05-23T06:22:22;99984.06;;;21.56;33.25
36664;BME280;53333;51.976;20.144;2023-05-23T06:24:55;99985.28;;;21.72;32.93
36664;BME280;53333;51.976;20.144;2023-05-23T06:27:27;99981.50;;;21.83;33.18
36664;BME280;53333;51.976;20.144;2023-05-23T06:30:00;99977.84;;;21.92;32.91
36664;BME280;53333;51.976;20.144;2023-05-23T06:32:33;99974.22;;;22.01;32.90
36664;BME280;53333;51.976;20.144;2023-05-23T06:35:07;99977.25;;;22.16;33.01
36664;BME280;53333;51.976;20.144;2023-05-23T06:37:42;99972.19;;;22.31;32.88
36664;BME280;53333;51.976;20.144;2023-05-23T06:40:16;99980.50;;;22.47;32.66
36664;BME280;53333;51.976;20.144;2023-05-23T06:42:49;99978.88;;;22.55;32.76
36664;BME280;53333;51.976;20.144;2023-05-23T06:45:28;99982.66;;;22.62;32.58
36664;BME280;53333;51.976;20.144;2023-05-23T06:48:01;99964.84;;;22.67;32.77
36664;BME280;53333;51.976;20.144;2023-05-23T06:50:36;99970.69;;;22.73;32.70
36664;BME280;53333;51.976;20.144;2023-05-23T06:53:10;99968.84;;;22.81;32.37
36664;BME280;53333;51.976;20.144;2023-05-23T06:55:44;99964.03;;;22.93;32.58
36664;BME280;53333;51.976;20.144;2023-05-23T06:58:20;99958.03;;;23.08;32.47
36664;BME280;53333;51.976;20.144;2023-05-23T07:00:55;99962.88;;;23.22;32.42
36664;BME280;53333;51.976;20.144;2023-05-23T07:03:30;99959.19;;;23.31;32.63
36664;BME280;53333;51.976;20.144;2023-05-23T07:06:07;99967.28;;;23.49;32.39
36664;BME280;53333;51.976;20.144;2023-05-23T07:08:42;99968.84;;;23.60;32.51
36664;BME280;53333;51.976;20.144;2023-05-23T07:11:20;99956.25;;;23.67;32.33
36664;BME280;53333;51.976;20.144;2023-05-23T07:13:57;99959.34;;;23.72;32.30
36664;BME280;53333;51.976;20.144;2023-05-23T07:16:49;99957.00;;;23.78;32.02
36664;BME280;53333;51.976;20.144;2023-05-23T07:19:22;99963.34;;;23.86;31.92
36664;BME280;53333;51.976;20.144;2023-05-23T07:21:56;99956.91;;;23.96;31.64
36664;BME280;53333;51.976;20.144;2023-05-23T07:24:31;99956.25;;;24.02;31.66
36664;BME280;53333;51.976;20.144;2023-05-23T07:27:04;99952.34;;;24.13;31.58
36664;BME280;53333;51.976;20.144;2023-05-23T07:29:41;99958.50;;;24.23;31.62
36664;BME280;53333;51.976;20.144;2023-05-23T07:32:14;99949.63;;;24.29;31.32
36664;BME280;53333;51.976;20.144;2023-05-23T07:34:48;99949.81;;;24.36;30.92
36664;BME280;53333;51.976;20.144;2023-05-23T07:37:21;99940.59;;;24.45;31.32
36664;BME280;53333;51.976;20.144;2023-05-23T07:39:56;99940.28;;;24.56;30.87
36664;BME280;53333;51.976;20.144;2023-05-23T07:42:28;99942.16;;;24.72;31.26
36664;BME280;53333;51.976;20.144;2023-05-23T07:45:01;99937.38;;;24.91;30.80
36664;BME280;53333;51.976;20.144;2023-05-23T07:47:35;99945.84;;;25.12;30.87
36664;BME280;53333;51.976;20.144;2023-05-23T07:50:07;99941.22;;;25.29;30.51
36664;BME280;53333;51.976;20.144;2023-05-23T07:52:41;99939.09;;;25.48;30.56
36664;BME280;53333;51.976;20.144;2023-05-23T07:55:19;99923.97;;;25.68;30.39
36664;BME280;53333;51.976;20.144;2023-05-23T07:57:52;99934.44;;;25.88;30.03
36664;BME280;53333;51.976;20.144;2023-05-23T08:00:28;99929.97;;;26.03;29.85
36664;BME280;53333;51.976;20.144;2023-05-23T08:03:08;99925.59;;;26.17;29.71
36664;BME280;53333;51.976;20.144;2023-05-23T08:05:52;99926.91;;;26.21;29.43
36664;BME280;53333;51.976;20.144;2023-05-23T08:08:25;99921.16;;;26.16;29.29
36664;BME280;53333;51.976;20.144;2023-05-23T08:10:59;99926.13;;;26.13;28.97
36664;BME280;53333;51.976;20.144;2023-05-23T08:13:40;99918.53;;;26.00;29.04
36664;BME280;53333;51.976;20.144;2023-05-23T08:16:32;99924.03;;;25.91;28.68
36664;BME280;53333;51.976;20.144;2023-05-23T08:19:06;99916.63;;;26.00;28.63
36664;BME280;53333;51.976;20.144;2023-05-23T08:21:39;99928.94;;;26.04;28.60
36664;BME280;53333;51.976;20.144;2023-05-23T08:24:12;99916.22;;;26.12;28.29
36664;BME280;53333;51.976;20.144;2023-05-23T08:26:48;99926.56;;;26.24;27.85
36664;BME280;53333;51.976;20.144;2023-05-23T08:29:22;99903.84;;;26.39;27.62
36664;BME280;53333;51.976;20.144;2023-05-23T08:31:55;99907.78;;;26.59;27.60
36664;BME280;53333;51.976;20.144;2023-05-23T08:34:28;99911.81;;;26.72;27.23
36664;BME280;53333;51.976;20.144;2023-05-23T08:37:01;99900.59;;;26.81;27.07
36664;BME280;53333;51.976;20.144;2023-05-23T08:39:34;99903.66;;;27.02;26.73
36664;BME280;53333;51.976;20.144;2023-05-23T08:42:25;99897.50;;;27.44;26.29
36664;BME280;53333;51.976;20.144;2023-05-23T08:44:59;99902.56;;;28.14;25.40
36664;BME280;53333;51.976;20.144;2023-05-23T08:47:32;99898.31;;;29.11;24.56
36664;BME280;53333;51.976;20.144;2023-05-23T08:50:07;99894.50;;;30.09;23.17
36664;BME280;53333;51.976;20.144;2023-05-23T08:52:42;99893.91;;;31.00;22.52
36664;BME280;53333;51.976;20.144;2023-05-23T08:55:16;99894.59;;;31.61;22.09
36664;BME280;53333;51.976;20.144;2023-05-23T08:57:50;99896.97;;;31.96;21.69
36664;BME280;53333;51.976;20.144;2023-05-23T09:00:33;99897.56;;;32.36;21.36
36664;BME280;53333;51.976;20.144;2023-05-23T09:03:06;99905.72;;;32.25;21.56
36664;BME280;53333;51.976;20.144;2023-05-23T09:06:03;99906.22;;;32.15;21.52
36664;BME280;53333;51.976;20.144;2023-05-23T09:08:38;99906.84;;;32.74;21.43
36664;BME280;53333;51.976;20.144;2023-05-23T09:11:11;99902.75;;;33.94;20.81
36664;BME280;53333;51.976;20.144;2023-05-23T09:13:48;99907.22;;;34.91;20.18
36664;BME280;53333;51.976;20.144;2023-05-23T09:16:22;99907.69;;;35.64;19.49
36664;BME280;53333;51.976;20.144;2023-05-23T09:18:59;99909.31;;;36.47;19.28
36664;BME280;53333;51.976;20.144;2023-05-23T09:21:41;99908.28;;;37.43;19.03
36664;BME280;53333;51.976;20.144;2023-05-23T09:24:22;99904.56;;;38.31;18.23
36664;BME280;53333;51.976;20.144;2023-05-23T09:26:55;99914.75;;;38.80;18.33
36664;BME280;53333;51.976;20.144;2023-05-23T09:29:29;99899.75;;;38.91;18.17
36664;BME280;53333;51.976;20.144;2023-05-23T09:32:09;99895.41;;;38.36;18.75
36664;BME280;53333;51.976;20.144;2023-05-23T09:34:50;99899.97;;;37.48;19.58
36664;BME280;53333;51.976;20.144;2023-05-23T09:37:30;99897.72;;;37.06;19.80
36664;BME280;53333;51.976;20.144;2023-05-23T09:40:06;99903.03;;;37.07;20.00
36664;BME280;53333;51.976;20.144;2023-05-23T09:42:43;99897.91;;;37.38;19.99
36664;BME280;53333;51.976;20.144;2023-05-23T09:45:18;99899.16;;;37.48;19.80
36664;BME280;53333;51.976;20.144;2023-05-23T09:47:51;99901.81;;;37.59;19.95
36664;BME280;53333;51.976;20.144;2023-05-23T09:50:25;99900.91;;;37.32;20.37
36664;BME280;53333;51.976;20.144;2023-05-23T09:53:02;99905.03;;;36.73;20.20
36664;BME280;53333;51.976;20.144;2023-05-23T09:55:34;99902.56;;;36.26;20.33
36664;BME280;53333;51.976;20.144;2023-05-23T09:58:07;99892.47;;;36.36;20.38
36664;BME280;53333;51.976;20.144;2023-05-23T10:00:42;99885.66;;;36.78;20.26
36664;BME280;53333;51.976;20.144;2023-05-23T10:03:15;99888.94;;;37.14;19.48
36664;BME280;53333;51.976;20.144;2023-05-23T10:05:49;99894.88;;;37.40;18.81
36664;BME280;53333;51.976;20.144;2023-05-23T10:08:23;99873.44;;;37.62;19.05
36664;BME280;53333;51.976;20.144;2023-05-23T10:14:04;99879.16;;;37.51;19.12
36664;BME280;53333;51.976;20.144;2023-05-23T10:16:42;99881.81;;;37.40;19.45
36664;BME280;53333;51.976;20.144;2023-05-23T10:19:17;99875.59;;;36.94;20.14
36664;BME280;53333;51.976;20.144;2023-05-23T10:21:55;99882.69;;;36.51;20.69
36664;BME280;53333;51.976;20.144;2023-05-23T10:24:30;99876.19;;;36.28;20.75
36664;BME280;53333;51.976;20.144;2023-05-23T10:27:03;99872.84;;;35.97;20.73
36664;BME280;53333;51.976;20.144;2023-05-23T10:29:35;99864.50;;;35.69;21.22
36664;BME280;53333;51.976;20.144;2023-05-23T10:32:10;99867.31;;;35.57;21.15
36664;BME280;53333;51.976;20.144;2023-05-23T10:34:47;99859.06;;;35.33;21.00
36664;BME280;53333;51.976;20.144;2023-05-23T10:37:26;99871.25;;;34.85;20.71
36664;BME280;53333;51.976;20.144;2023-05-23T10:40:02;99873.88;;;34.32;20.38
36664;BME280;53333;51.976;20.144;2023-05-23T10:42:44;99874.50;;;33.74;20.08
36664;BME280;53333;51.976;20.144;2023-05-23T10:45:20;99867.94;;;33.19;20.14
36664;BME280;53333;51.976;20.144;2023-05-23T10:47:54;99864.25;;;32.82;20.33
36664;BME280;53333;51.976;20.144;2023-05-23T10:50:31;99862.91;;;32.66;20.58
36664;BME280;53333;51.976;20.144;2023-05-23T10:53:04;99848.91;;;32.61;20.70
36664;BME280;53333;51.976;20.144;2023-05-23T10:55:37;99855.13;;;32.56;20.56
36664;BME280;53333;51.976;20.144;2023-05-23T10:58:10;99853.25;;;32.50;20.47
36664;BME280;53333;51.976;20.144;2023-05-23T11:00:51;99852.63;;;32.48;20.33
36664;BME280;53333;51.976;20.144;2023-05-23T11:03:32;99839.72;;;32.41;20.46
36664;BME280;53333;51.976;20.144;2023-05-23T11:06:06;99848.00;;;32.41;20.48
36664;BME280;53333;51.976;20.144;2023-05-23T11:08:39;99855.97;;;32.31;20.49
36664;BME280;53333;51.976;20.144;2023-05-23T11:11:20;99850.72;;;32.23;20.61
36664;BME280;53333;51.976;20.144;2023-05-23T11:13:54;99854.84;;;32.14;20.55
36664;BME280;53333;51.976;20.144;2023-05-23T11:16:27;99845.41;;;31.90;20.13
36664;BME280;53333;51.976;20.144;2023-05-23T11:21:54;99835.28;;;31.31;20.61
36664;BME280;53333;51.976;20.144;2023-05-23T11:24:46;99841.75;;;31.05;20.61
36664;BME280;53333;51.976;20.144;2023-05-23T11:27:24;99835.84;;;30.75;20.69
36664;BME280;53333;51.976;20.144;2023-05-23T11:30:02;99838.44;;;30.50;20.92
36664;BME280;53333;51.976;20.144;2023-05-23T11:32:35;99832.88;;;30.23;21.05
36664;BME280;53333;51.976;20.144;2023-05-23T11:35:09;99831.59;;;29.99;21.10
36664;BME280;53333;51.976;20.144;2023-05-23T11:37:43;99831.56;;;29.79;21.29
36664;BME280;53333;51.976;20.144;2023-05-23T11:40:29;99825.59;;;29.68;21.17
36664;BME280;53333;51.976;20.144;2023-05-23T11:43:02;99824.88;;;29.46;21.45
36664;BME280;53333;51.976;20.144;2023-05-23T11:45:36;99814.94;;;29.04;21.77
36664;BME280;53333;51.976;20.144;2023-05-23T11:48:09;99806.41;;;28.57;21.68
36664;BME280;53333;51.976;20.144;2023-05-23T11:50:43;99813.31;;;28.18;22.27
36664;BME280;53333;51.976;20.144;2023-05-23T11:53:19;99819.28;;;27.85;22.05
36664;BME280;53333;51.976;20.144;2023-05-23T11:55:53;99811.63;;;27.59;22.23
36664;BME280;53333;51.976;20.144;2023-05-23T11:58:27;99794.00;;;27.31;22.38
36664;BME280;53333;51.976;20.144;2023-05-23T12:01:04;99799.16;;;27.05;22.53
36664;BME280;53333;51.976;20.144;2023-05-23T12:03:43;99801.34;;;26.79;22.37
36664;BME280;53333;51.976;20.144;2023-05-23T12:06:17;99803.56;;;26.61;22.73
36664;BME280;53333;51.976;20.144;2023-05-23T12:08:51;99805.03;;;26.49;22.71
36664;BME280;53333;51.976;20.144;2023-05-23T12:11:24;99792.13;;;26.42;22.73
36664;BME280;53333;51.976;20.144;2023-05-23T12:13:57;99802.91;;;26.44;22.63
36664;BME280;53333;51.976;20.144;2023-05-23T12:16:32;99795.16;;;26.48;22.65
36664;BME280;53333;51.976;20.144;2023-05-23T12:19:05;99787.78;;;26.48;22.64
36664;BME280;53333;51.976;20.144;2023-05-23T12:21:41;99793.34;;;26.55;22.74
36664;BME280;53333;51.976;20.144;2023-05-23T12:24:16;99791.88;;;26.67;22.47
36664;BME280;53333;51.976;20.144;2023-05-23T12:26:49;99781.78;;;26.82;22.72
36664;BME280;53333;51.976;20.144;2023-05-23T12:29:27;99788.97;;;26.98;22.34
36664;BME280;53333;51.976;20.144;2023-05-23T12:32:05;99782.34;;;27.08;22.70
36664;BME280;53333;51.976;20.144;2023-05-23T12:34:39;99793.28;;;27.08;22.58
36664;BME280;53333;51.976;20.144;2023-05-23T12:37:13;99785.72;;;26.95;22.42
36664;BME280;53333;51.976;20.144;2023-05-23T12:39:52;99790.38;;;26.79;22.84
36664;BME280;53333;51.976;20.144;2023-05-23T12:42:24;99786.41;;;26.67;22.46
36664;BME280;53333;51.976;20.144;2023-05-23T12:45:00;99782.28;;;26.71;22.71
36664;BME280;53333;51.976;20.144;2023-05-23T12:47:33;99783.09;;;26.87;22.60
36664;BME280;53333;51.976;20.144;2023-05-23T12:50:06;99782.91;;;27.03;22.49
36664;BME280;53333;51.976;20.144;2023-05-23T12:52:39;99776.16;;;27.21;22.49
36664;BME280;53333;51.976;20.144;2023-05-23T12:55:13;99780.22;;;27.40;22.33
36664;BME280;53333;51.976;20.144;2023-05-23T12:57:46;99777.41;;;27.54;21.96
36664;BME280;53333;51.976;20.144;2023-05-23T13:00:20;99776.63;;;27.61;22.17
36664;BME280;53333;51.976;20.144;2023-05-23T13:02:53;99782.44;;;27.72;22.27
36664;BME280;53333;51.976;20.144;2023-05-23T13:05:26;99772.78;;;27.77;21.98
36664;BME280;53333;51.976;20.144;2023-05-23T13:07:59;99766.72;;;27.81;22.06
36664;BME280;53333;51.976;20.144;2023-05-23T13:10:33;99764.41;;;27.85;22.40
36664;BME280;53333;51.976;20.144;2023-05-23T13:13:06;99755.59;;;27.89;22.03
36664;BME280;53333;51.976;20.144;2023-05-23T13:15:39;99766.84;;;27.95;21.98
36664;BME280;53333;51.976;20.144;2023-05-23T13:18:13;99748.28;;;27.97;22.19
36664;BME280;53333;51.976;20.144;2023-05-23T13:20:45;99758.63;;;27.95;22.28
36664;BME280;53333;51.976;20.144;2023-05-23T13:23:18;99750.41;;;27.95;22.33
36664;BME280;53333;51.976;20.144;2023-05-23T13:25:53;99758.63;;;27.95;22.35
36664;BME280;53333;51.976;20.144;2023-05-23T13:28:27;99758.16;;;27.91;22.24
36664;BME280;53333;51.976;20.144;2023-05-23T13:31:00;99753.25;;;27.86;22.57